Terminal Aerodrome Forecast
Issued by NWS Cleveland, OH

Home | Current Version | Previous Version | Text Only | Print | Product List | Glossary On
Versions: 1 2 3 4 5 6 7 8 9 10 11 12 13 14 15 16 17
662
FTUS41 KCLE 272337
TAFMFD
TAF
KMFD 272337Z 2800/2824 VRB04KT P6SM BKN040
      TEMPO 2800/2802 5SM BR BKN020
     FM280800 03005KT 4SM BR BKN070
     FM281400 03008KT P6SM BKN025
     FM282000 02012G20KT P6SM BKN035=

USA.gov is the U.S. government's official web portal to all federal, state and local government web resources and services.